Time;durP1;ratioP1;P1;durP2;ratioP2;P2;SDS_P1;SDS_P2;PMS_P1;PMS_P2;Temp;Humidity;BMP_temperature;BMP_pressure;BME280_temperature;BME280_humidity;BME280_pressure;Samples;Min_cycle;Max_cycle;Signal;HPM_P1;HPM_P2
2024/01/09 00:00:26;;;;;;;33.83;12.63;;;;;;;-2.40;59.25;98730.78;5335627;26;20028;-84
2024/01/09 00:02:53;;;;;;;34.72;13.18;;;;;;;-2.75;59.73;98722.50;5335909;27;20077;-84
2024/01/09 00:05:20;;;;;;;33.83;12.95;;;;;;;-2.21;59.33;98732.84;5335927;27;20028;-84
2024/01/09 00:07:47;;;;;;;34.90;12.98;;;;;;;-2.48;58.83;98724.72;5335492;27;20021;-84
2024/01/09 00:10:14;;;;;;;32.15;13.10;;;;;;;-2.66;59.71;98731.13;5335197;26;20024;-84
2024/01/09 00:12:40;;;;;;;29.45;12.25;;;;;;;-2.49;59.03;98733.97;5334571;27;20056;-83
2024/01/09 00:15:14;;;;;;;29.37;12.05;;;;;;;-2.35;59.16;98735.09;5314921;27;20055;-84
2024/01/09 00:17:42;;;;;;;31.52;12.13;;;;;;;-2.35;58.33;98741.81;5334712;27;20171;-84
2024/01/09 00:20:10;;;;;;;32.75;13.18;;;;;;;-2.45;58.30;98733.22;5333468;26;20132;-84
2024/01/09 00:22:37;;;;;;;30.05;12.57;;;;;;;-2.43;58.18;98743.37;5333899;27;20104;-84
2024/01/09 00:25:05;;;;;;;31.02;12.65;;;;;;;-2.05;57.98;98744.94;5333666;27;20055;-84
2024/01/09 00:27:32;;;;;;;28.52;12.27;;;;;;;-2.69;59.84;98745.34;5333641;27;20114;-84
2024/01/09 00:29:59;;;;;;;33.85;13.02;;;;;;;-2.34;59.11;98752.00;5333381;26;20056;-84
2024/01/09 00:32:27;;;;;;;32.35;12.18;;;;;;;-2.67;59.22;98747.09;5333690;27;20021;-84
2024/01/09 00:34:54;;;;;;;33.30;11.48;;;;;;;-2.28;58.93;98755.44;5334408;27;20025;-84
2024/01/09 00:37:21;;;;;;;33.83;12.43;;;;;;;-2.15;58.65;98754.84;5334873;27;20022;-84
2024/01/09 00:39:50;;;;;;;30.92;12.57;;;;;;;-2.51;58.99;98755.00;5334786;26;20108;-84
2024/01/09 00:42:17;;;;;;;26.58;11.45;;;;;;;-2.77;59.51;98759.50;5334778;27;20060;-84
2024/01/09 00:44:44;;;;;;;28.05;11.75;;;;;;;-3.25;61.09;98757.59;5334256;27;20029;-84
2024/01/09 00:47:16;;;;;;;32.50;13.13;;;;;;;-2.49;59.45;98760.94;5335048;27;20060;-84
2024/01/09 00:49:45;;;;;;;28.15;12.13;;;;;;;-2.21;59.06;98767.41;5334289;26;20056;-84
2024/01/09 00:52:12;;;;;;;32.03;13.10;;;;;;;-2.50;59.62;98765.13;5334713;27;20021;-84
2024/01/09 00:54:42;;;;;;;33.25;13.73;;;;;;;-2.57;60.43;98770.03;5333688;27;20419;-84
2024/01/09 00:57:11;;;;;;;33.75;11.90;;;;;;;-2.93;61.02;98783.56;5332898;27;20049;-84
2024/01/09 00:59:38;;;;;;;34.97;12.90;;;;;;;-2.84;61.62;98777.88;5333626;26;20074;-84
2024/01/09 01:02:05;;;;;;;30.95;11.90;;;;;;;-2.62;59.99;98780.03;5333897;27;20052;-84
2024/01/09 01:04:32;;;;;;;30.25;11.90;;;;;;;-2.51;59.98;98787.84;5334641;27;20135;-84
2024/01/09 01:07:01;;;;;;;31.12;12.15;;;;;;;-2.27;58.01;98779.91;5334622;27;20057;-84
2024/01/09 01:09:27;;;;;;;35.30;13.07;;;;;;;-2.43;59.13;98796.44;5333864;26;20072;-84
2024/01/09 01:11:54;;;;;;;34.95;13.35;;;;;;;-2.41;58.83;98788.06;5334177;27;20106;-84
2024/01/09 01:14:23;;;;;;;38.03;13.77;;;;;;;-1.97;58.08;98794.81;5334177;27;20026;-84
2024/01/09 01:16:56;;;;;;;30.12;12.32;;;;;;;-2.89;59.89;98790.38;5333973;27;20025;-84
2024/01/09 01:19:23;;;;;;;31.00;11.98;;;;;;;-2.62;59.67;98800.25;5335321;26;20083;-84
2024/01/09 01:21:50;;;;;;;33.03;12.05;;;;;;;-2.47;58.57;98802.25;5355793;26;20048;-84
2024/01/09 01:24:17;;;;;;;29.05;12.25;;;;;;;-2.36;57.98;98796.56;5356038;26;20029;-84
2024/01/09 01:26:44;;;;;;;32.33;12.77;;;;;;;-2.44;58.85;98802.31;5356671;26;20061;-84
2024/01/09 01:29:11;;;;;;;34.88;12.27;;;;;;;-2.95;59.77;98813.00;5355694;26;20074;-84
2024/01/09 01:31:38;;;;;;;32.42;12.35;;;;;;;-3.03;60.21;98809.44;5355942;26;20021;-84
2024/01/09 01:34:05;;;;;;;29.25;12.00;;;;;;;-2.58;58.68;98806.22;5355889;26;20044;-84
2024/01/09 01:36:32;;;;;;;36.13;12.80;;;;;;;-2.73;59.39;98812.66;5356181;26;20084;-84
2024/01/09 01:38:59;;;;;;;30.52;11.25;;;;;;;-3.00;59.85;98817.06;5355567;26;20024;-84
2024/01/09 01:41:26;;;;;;;32.67;11.80;;;;;;;-3.07;60.28;98812.72;5355077;26;20696;-84
2024/01/09 01:43:53;;;;;;;27.05;10.52;;;;;;;-2.79;60.52;98819.22;5355684;26;20048;-84
2024/01/09 01:46:21;;;;;;;33.00;12.88;;;;;;;-2.66;59.22;98817.03;5356220;26;20072;-84
2024/01/09 01:48:48;;;;;;;32.35;10.63;;;;;;;-2.83;59.86;98812.41;5337055;26;20032;-84
2024/01/09 01:51:15;;;;;;;30.77;11.93;;;;;;;-2.96;59.70;98816.34;5356400;26;20047;-84
2024/01/09 01:53:42;;;;;;;32.25;12.75;;;;;;;-3.15;59.60;98817.56;5357423;26;20060;-84
2024/01/09 01:56:09;;;;;;;31.80;11.93;;;;;;;-2.84;60.14;98826.72;5357690;26;20043;-84
2024/01/09 01:58:36;;;;;;;33.85;12.40;;;;;;;-2.50;58.44;98824.94;5358743;26;20024;-84
2024/01/09 02:01:04;;;;;;;31.90;12.20;;;;;;;-2.47;58.28;98823.31;5358386;26;20048;-84
2024/01/09 02:03:31;;;;;;;32.95;11.82;;;;;;;-2.95;59.49;98807.94;5358438;26;20021;-84
2024/01/09 02:05:58;;;;;;;31.60;11.77;;;;;;;-3.22;61.43;98825.81;5357869;26;20057;-84
2024/01/09 02:08:28;;;;;;;28.52;11.52;;;;;;;-2.92;60.43;98821.47;5359336;26;20020;-84
2024/01/09 02:10:55;;;;;;;34.58;13.43;;;;;;;-3.12;60.56;98816.78;5359682;26;20062;-84
2024/01/09 02:13:22;;;;;;;35.53;12.93;;;;;;;-3.11;60.74;98824.38;5359766;26;20025;-84
2024/01/09 02:15:50;;;;;;;32.95;12.00;;;;;;;-2.69;59.85;98816.09;5359225;26;20123;-84
2024/01/09 02:18:17;;;;;;;28.08;11.30;;;;;;;-2.83;60.41;98814.94;5340308;26;20797;-84
2024/01/09 02:20:44;;;;;;;34.58;12.98;;;;;;;-2.63;59.59;98823.81;5339445;26;20109;-84
2024/01/09 02:23:11;;;;;;;33.13;13.13;;;;;;;-2.73;59.60;98824.44;5358928;26;20055;-83
2024/01/09 02:25:40;;;;;;;28.40;11.60;;;;;;;-2.96;60.39;98824.75;5359415;26;20035;-84
2024/01/09 02:28:13;;;;;;;25.40;10.02;;;;;;;-2.73;59.82;98821.91;5358417;26;20395;-84
2024/01/09 02:30:40;;;;;;;32.78;12.50;;;;;;;-2.97;61.23;98828.09;5358329;26;20061;-84
2024/01/09 02:33:07;;;;;;;29.52;11.90;;;;;;;-2.50;59.40;98835.03;5338240;26;20063;-83
2024/01/09 02:35:35;;;;;;;30.90;11.63;;;;;;;-2.96;60.75;98829.81;5338577;26;20068;-84
2024/01/09 02:38:01;;;;;;;34.25;12.37;;;;;;;-2.86;61.09;98825.84;5339302;26;20043;-84
2024/01/09 02:40:28;;;;;;;31.08;12.18;;;;;;;-2.98;61.60;98833.09;5338715;26;20409;-83
2024/01/09 02:42:56;;;;;;;29.58;12.07;;;;;;;-2.94;60.68;98839.94;5358291;26;20044;-84
2024/01/09 02:45:28;;;;;;;28.62;11.68;;;;;;;-2.68;59.64;98835.47;5357762;26;20125;-84
2024/01/09 02:47:55;;;;;;;30.60;10.88;;;;;;;-2.81;59.59;98834.34;5358639;26;20032;-84
2024/01/09 02:50:22;;;;;;;30.37;11.93;;;;;;;-2.32;59.22;98830.38;5358234;26;20038;-84
2024/01/09 02:52:49;;;;;;;32.10;12.37;;;;;;;-2.26;57.10;98825.44;5358047;26;20049;-84
2024/01/09 02:55:16;;;;;;;;;;;;;;;-2.80;58.64;98835.19;5357651;26;20074;-84
2024/01/09 02:57:43;;;;;;;27.52;10.82;;;;;;;-2.66;59.76;98834.72;5358530;26;19976;-83
2024/01/09 03:00:10;;;;;;;;;;;;;;;-2.66;59.31;98838.88;5358418;26;20107;-84
2024/01/09 03:02:37;;;;;;;31.62;10.80;;;;;;;-2.47;58.91;98830.03;5358029;26;19962;-84
2024/01/09 03:05:06;;;;;;;30.65;11.02;;;;;;;-2.63;58.86;98831.38;5357017;26;20063;-84
2024/01/09 03:07:34;;;;;;;28.35;11.20;;;;;;;-2.70;59.05;98837.13;5357318;26;20058;-84
2024/01/09 03:10:02;;;;;;;29.90;10.65;;;;;;;-2.67;59.60;98835.50;5336638;26;20041;-84
2024/01/09 03:12:29;;;;;;;32.05;11.18;;;;;;;-2.77;59.48;98835.25;5356050;26;20044;-84
2024/01/09 03:14:56;;;;;;;;;;;;;;;-2.55;58.88;98829.00;5355711;26;20060;-81
2024/01/09 03:17:23;;;;;;;29.23;11.20;;;;;;;-2.56;58.73;98845.84;5355688;26;19999;-84
2024/01/09 03:19:50;;;;;;;32.20;11.18;;;;;;;-2.19;57.67;98837.38;5352292;26;20029;-84
2024/01/09 03:22:41;;;;;;;28.05;11.38;;;;;;;-2.99;59.09;98804.47;5356098;26;20049;-83
2024/01/09 03:25:08;;;;;;;24.80;10.70;;;;;;;-2.77;59.99;98837.78;5356358;26;20025;-84
2024/01/09 03:27:35;;;;;;;30.92;12.23;;;;;;;-2.74;60.06;98841.25;5355975;26;20110;-84
2024/01/09 03:30:02;;;;;;;30.48;10.90;;;;;;;-2.97;60.38;98843.25;5355226;26;20032;-84
2024/01/09 03:32:29;;;;;;;26.90;11.20;;;;;;;-2.99;60.36;98841.50;5356673;26;20043;-84
2024/01/09 03:34:56;;;;;;;28.12;11.25;;;;;;;-2.57;60.05;98844.13;5356582;26;20083;-84
2024/01/09 03:37:23;;;;;;;28.98;11.35;;;;;;;-2.51;59.21;98844.28;5357365;26;20024;-84
2024/01/09 03:39:50;;;;;;;28.85;10.98;;;;;;;-2.61;58.61;98844.91;5356932;26;20024;-84
2024/01/09 03:42:16;;;;;;;;;;;;;;;-2.55;59.38;98851.75;5357412;26;20688;-84
2024/01/09 03:44:43;;;;;;;29.80;10.23;;;;;;;-2.91;60.69;98850.09;5356797;26;19942;-84
2024/01/09 03:47:14;;;;;;;30.85;10.52;;;;;;;-2.36;59.01;98851.34;5358323;26;20071;-84
2024/01/09 03:49:40;;;;;;;27.20;10.85;;;;;;;-2.13;58.50;98845.06;5357128;26;20072;-84
2024/01/09 03:52:07;;;;;;;29.08;10.65;;;;;;;-2.16;58.06;98854.28;5356760;26;20031;-84
2024/01/09 03:54:34;;;;;;;;;;;;;;;-2.26;58.18;98854.91;5357879;26;20035;-83
2024/01/09 03:57:01;;;;;;;32.53;11.63;;;;;;;-2.29;58.31;98870.88;5356740;26;19932;-81
2024/01/09 03:59:28;;;;;;;29.80;12.18;;;;;;;-2.20;57.87;98863.50;5357232;26;20068;-84
2024/01/09 04:01:54;;;;;;;28.52;10.38;;;;;;;-2.47;57.93;98867.94;5356980;26;20048;-84
2024/01/09 04:04:21;;;;;;;28.38;10.32;;;;;;;-2.09;57.65;98873.81;5356839;26;20060;-84
2024/01/09 04:06:52;;;;;;;31.00;10.93;;;;;;;-1.98;57.23;98864.78;5356454;26;20025;-84
2024/01/09 04:09:19;;;;;;;26.50;10.70;;;;;;;-2.38;58.22;98870.66;5356216;26;20056;-84
2024/01/09 04:22:36;;;;;;;29.30;11.82;;;;;;;-3.15;60.45;98832.72;5378960;26;190442;-83
2024/01/09 04:25:03;;;;;;;29.05;10.48;;;;;;;-2.47;58.14;98881.44;5362600;26;20028;-82
2024/01/09 04:27:30;;;;;;;28.10;10.60;;;;;;;-2.55;58.35;98894.69;5343604;26;20024;-83
2024/01/09 04:29:58;;;;;;;29.30;11.43;;;;;;;-2.25;58.62;98890.31;5362235;26;20040;-83
2024/01/09 04:32:24;;;;;;;28.50;10.88;;;;;;;-2.53;58.36;98898.16;5362556;26;20056;-82
2024/01/09 04:34:53;;;;;;;28.58;10.82;;;;;;;-3.31;61.06;98891.19;5363342;26;20021;-82
2024/01/09 04:37:20;;;;;;;24.75;9.60;;;;;;;-2.60;59.25;98893.75;5364226;26;20046;-83
2024/01/09 04:39:47;;;;;;;;;;;;;;;-2.28;58.64;98902.06;5363834;26;20053;-83
2024/01/09 04:42:15;;;;;;;26.67;10.25;;;;;;;-2.71;59.71;98901.94;5364117;26;19943;-83
2024/01/09 04:44:42;;;;;;;29.83;12.13;;;;;;;-2.46;58.55;98899.97;5363731;26;20119;-83
2024/01/09 04:47:15;;;;;;;28.75;11.52;;;;;;;-2.50;59.54;98904.09;5363908;26;20056;-83
2024/01/09 04:49:43;;;;;;;26.80;10.77;;;;;;;-2.68;59.57;98901.16;5364042;26;20026;-83
2024/01/09 04:52:10;;;;;;;27.67;11.15;;;;;;;-2.49;60.00;98905.81;5364467;26;20081;-83
2024/01/09 04:54:37;;;;;;;32.35;11.82;;;;;;;-2.12;58.75;98916.75;5364406;26;20070;-83
2024/01/09 04:57:04;;;;;;;31.37;11.98;;;;;;;-2.55;58.61;98910.75;5364154;26;20072;-83
2024/01/09 04:59:31;;;;;;;24.95;10.02;;;;;;;-2.32;58.57;98908.72;5364235;26;20093;-83
2024/01/09 05:02:01;;;;;;;30.10;12.10;;;;;;;-2.43;58.72;98915.22;5364136;26;20029;-83
2024/01/09 05:04:29;;;;;;;39.25;12.63;;;;;;;-2.01;58.61;98912.78;5363609;26;20028;-83
2024/01/09 05:06:56;;;;;;;31.65;12.73;;;;;;;-2.50;59.06;98921.81;5364425;26;20024;-82
2024/01/09 05:09:23;;;;;;;30.45;11.90;;;;;;;-2.80;60.34;98914.34;5343521;26;20793;-83
2024/01/09 05:11:50;;;;;;;29.05;11.07;;;;;;;-2.04;58.63;98921.13;5363655;26;20085;-83
2024/01/09 05:14:17;;;;;;;28.60;10.65;;;;;;;-2.44;59.35;98921.94;5363039;26;20056;-82
2024/01/09 05:16:44;;;;;;;36.33;12.82;;;;;;;-2.08;58.29;98914.31;5364038;26;20036;-83
2024/01/09 05:19:11;;;;;;;29.35;11.27;;;;;;;-2.09;58.51;98914.28;5363745;26;20020;-83
2024/01/09 05:21:38;;;;;;;31.12;12.20;;;;;;;-2.13;58.21;98923.44;5360957;26;20082;-82
2024/01/09 05:24:05;;;;;;;;;;;;;;;-1.92;57.98;98923.06;5358507;26;20101;-83
2024/01/09 05:26:32;;;;;;;28.12;12.10;;;;;;;-2.36;58.61;98930.53;5357991;26;20023;-83
2024/01/09 05:28:59;;;;;;;33.67;11.50;;;;;;;-2.73;59.72;98928.00;5357485;26;20028;-83
2024/01/09 05:31:26;;;;;;;31.62;11.32;;;;;;;-2.53;59.63;98934.37;5357528;26;20184;-83
2024/01/09 05:33:54;;;;;;;29.27;12.07;;;;;;;-2.49;60.00;98937.81;5357519;26;20116;-83
2024/01/09 05:36:25;;;;;;;31.73;11.40;;;;;;;-2.22;59.54;98938.44;5356384;26;20062;-83
2024/01/09 05:38:52;;;;;;;35.95;12.57;;;;;;;-1.99;58.76;98946.53;5356549;26;20033;-83
2024/01/09 05:41:22;;;;;;;27.02;11.70;;;;;;;-2.34;60.46;98945.72;5356965;26;20033;-83
2024/01/09 05:43:49;;;;;;;28.33;12.10;;;;;;;-2.03;60.09;98947.25;5357383;26;20683;-83
2024/01/09 05:46:17;;;;;;;29.30;11.65;;;;;;;-1.90;59.22;98953.47;5358134;26;20079;-83
2024/01/09 05:48:44;;;;;;;33.20;11.70;;;;;;;-2.40;60.44;98949.00;5357407;26;20041;-83
2024/01/09 05:51:11;;;;;;;33.33;13.23;;;;;;;-2.10;60.24;98946.31;5345772;26;20071;-83
2024/01/09 05:53:50;;;;;;;35.17;12.70;;;;;;;-2.02;59.75;98951.53;5357326;26;20068;-83
2024/01/09 05:56:18;;;;;;;32.33;12.23;;;;;;;-1.47;58.23;98957.72;5356967;26;20024;-80
2024/01/09 05:58:45;;;;;;;32.03;12.07;;;;;;;-1.84;58.09;98962.00;5357836;26;20049;-83
2024/01/09 06:01:12;;;;;;;;;;;;;;;-1.97;58.85;98957.53;5358085;26;20068;-83
2024/01/09 06:03:39;;;;;;;33.45;12.27;;;;;;;-1.71;58.06;98970.72;5338089;26;20510;-82
2024/01/09 06:06:09;;;;;;;30.70;12.30;;;;;;;-1.59;57.00;98962.53;5358340;26;20044;-83
2024/01/09 06:08:36;;;;;;;29.83;12.30;;;;;;;-1.71;58.18;98980.84;5358313;26;20020;-83
2024/01/09 06:11:04;;;;;;;30.50;11.82;;;;;;;-1.51;57.46;98969.44;5357567;26;20076;-83
2024/01/09 06:13:31;;;;;;;36.75;13.18;;;;;;;-1.70;56.78;98986.75;5358450;26;20105;-83
2024/01/09 06:16:12;;;;;;;30.37;13.13;;;;;;;-1.22;55.62;98984.34;5360015;26;20115;-83
2024/01/09 06:18:39;;;;;;;28.35;11.12;;;;;;;-1.10;55.26;98988.78;5323938;26;20064;-83
2024/01/09 06:21:09;;;;;;;29.05;12.02;;;;;;;-1.12;55.08;98988.75;5324142;27;20064;-83
2024/01/09 06:23:47;;;;;;;29.95;12.15;;;;;;;-1.29;55.32;98987.56;5317022;27;20028;-83
2024/01/09 06:26:20;;;;;;;34.75;12.63;;;;;;;-1.23;55.88;98997.84;5318028;27;20026;-83
2024/01/09 06:28:47;;;;;;;26.83;10.48;;;;;;;-1.12;55.73;99001.44;5318962;27;20032;-83
2024/01/09 06:31:14;;;;;;;;;;;;;;;-0.81;54.13;99002.00;5330777;27;20044;-83
2024/01/09 06:33:40;;;;;;;29.27;10.75;;;;;;;-0.68;53.51;99014.88;5338564;26;19944;-83
2024/01/09 06:36:19;;;;;;;36.15;12.90;;;;;;;-1.10;54.33;99016.66;5340941;26;20070;-83
2024/01/09 06:38:46;;;;;;;30.17;11.70;;;;;;;-1.03;54.42;99029.47;5339877;26;20025;-83
2024/01/09 06:41:13;;;;;;;28.98;11.27;;;;;;;-0.91;53.89;99024.63;5340575;26;20077;-83
2024/01/09 06:43:40;;;;;;;27.17;11.27;;;;;;;-1.40;54.74;99038.00;5340472;26;20081;-83
2024/01/09 06:46:14;;;;;;;;;;;;;;;-1.59;55.27;99041.00;5340598;26;20068;-83
2024/01/09 06:48:41;;;;;;;28.42;11.93;;;;;;;-1.27;54.89;99050.09;5332865;26;20011;-83
2024/01/09 06:51:08;;;;;;;32.50;12.63;;;;;;;-1.64;55.94;99055.22;5325556;26;20111;-83
2024/01/09 06:53:35;;;;;;;30.45;10.60;;;;;;;-1.70;56.18;99050.00;5332707;26;20711;-83
2024/01/09 06:56:04;;;;;;;30.73;12.25;;;;;;;-1.70;55.67;99050.88;5332878;26;20072;-84
2024/01/09 06:58:31;;;;;;;30.83;12.30;;;;;;;-2.03;56.31;99059.38;5333053;27;20060;-84
2024/01/09 07:00:58;;;;;;;;;;;;;;;-1.88;56.40;99060.59;5310462;27;20464;-84
2024/01/09 07:04:09;;;;;;;32.70;10.77;;;;;;;-1.94;56.61;99061.28;5317417;27;19980;-83
2024/01/09 07:06:44;;;;;;;30.33;11.30;;;;;;;-1.63;55.29;99009.69;5249000;27;20065;-81
2024/01/09 07:11:52;;;;;;;33.70;11.67;;;;;;;-1.01;54.15;99070.87;5239788;27;20061;31
2024/01/09 07:14:19;;;;;;;31.27;12.73;;;;;;;-1.01;54.04;99073.41;5292845;27;20033;-85
2024/01/09 07:16:52;;;;;;;31.08;12.10;;;;;;;-1.60;54.01;99031.66;5284804;27;20111;-84
2024/01/09 07:19:19;;;;;;;28.62;11.68;;;;;;;-1.68;56.04;99072.00;5284214;27;20104;-84
2024/01/09 07:21:46;;;;;;;28.52;11.73;;;;;;;-1.79;56.29;99081.88;5297813;27;20060;-84
2024/01/09 07:24:13;;;;;;;32.75;11.15;;;;;;;-1.85;56.68;99086.78;5306129;27;20057;-84
2024/01/09 07:26:42;;;;;;;30.33;12.07;;;;;;;-1.67;56.87;99088.91;5310744;27;20061;-84
2024/01/09 07:29:16;;;;;;;31.48;12.02;;;;;;;-1.25;56.35;99094.03;5312494;27;20577;-84
2024/01/09 07:31:43;;;;;;;29.37;11.82;;;;;;;-0.65;54.38;99095.19;5310535;27;20088;-88
2024/01/09 07:34:10;;;;;;;29.95;11.88;;;;;;;-0.73;54.65;99096.75;5305017;27;20122;-85
2024/01/09 07:36:38;;;;;;;29.02;11.73;;;;;;;-0.57;53.96;99110.53;5303419;27;20412;-82
2024/01/09 07:39:05;;;;;;;30.23;12.55;;;;;;;-0.93;54.23;99112.41;5307028;27;20551;-83
2024/01/09 07:44:14;;;;;;;29.48;12.32;;;;;;;-1.26;54.79;99115.13;5301955;26;20060;-82
2024/01/09 07:46:42;;;;;;;35.30;12.88;;;;;;;-1.16;54.18;99113.62;5348477;26;20059;-84
2024/01/09 07:49:09;;;;;;;29.23;12.52;;;;;;;-1.15;54.60;99124.63;5332330;26;20044;-84
2024/01/09 07:51:36;;;;;;;31.87;12.15;;;;;;;-1.45;55.06;99128.19;5346934;26;20064;-87
2024/01/09 07:54:03;;;;;;;27.67;11.32;;;;;;;-1.26;55.43;99129.47;5347965;26;20070;-83
2024/01/09 07:56:30;;;;;;;31.33;11.55;;;;;;;-0.60;53.74;99129.09;5349750;26;20077;-80
2024/01/09 07:58:57;;;;;;;28.80;11.43;;;;;;;-0.95;54.68;99131.81;5353360;26;20031;-84
2024/01/09 08:01:24;;;;;;;;;;;;;;;-0.93;54.77;99137.75;5328294;26;20051;-85
2024/01/09 08:10:54;;;;;;;29.40;11.55;;;;;;;-1.89;58.08;99145.72;5331147;26;19950;-85
2024/01/09 08:14:06;;;;;;;32.83;12.55;;;;;;;-1.75;57.17;99118.22;5349105;26;20029;-86
2024/01/09 08:27:40;;;;;;;26.10;9.43;;;;;;;-1.89;59.01;99160.06;5347496;26;20070;-86
2024/01/09 08:30:09;;;;;;;28.73;9.02;;;;;;;-1.83;57.19;99168.63;5346525;26;20118;-85
2024/01/09 08:32:37;;;;;;;21.08;8.27;;;;;;;-2.28;57.83;99164.97;5345882;26;20045;-85
2024/01/09 08:35:05;;;;;;;28.80;9.73;;;;;;;-2.88;59.15;99170.06;5349230;26;20388;-85
2024/01/09 08:37:32;;;;;;;28.20;10.57;;;;;;;-2.62;58.75;99174.16;5353443;26;20469;-85
2024/01/09 08:39:59;;;;;;;;;;;;;;;-2.67;57.87;99175.69;5347218;26;20056;-85
2024/01/09 08:42:26;;;;;;;19.20;7.40;;;;;;;-2.61;59.45;99175.88;5347041;26;19979;-85
2024/01/09 08:44:53;;;;;;;27.65;10.15;;;;;;;-2.87;58.77;99176.81;5346791;26;20070;-85
2024/01/09 08:47:20;;;;;;;23.83;9.70;;;;;;;-2.81;60.28;99174.47;5345875;26;20061;-85
2024/01/09 08:49:47;;;;;;;29.90;10.80;;;;;;;-2.35;58.70;99174.91;5345755;26;20049;-86
2024/01/09 08:52:14;;;;;;;30.12;11.38;;;;;;;-2.00;57.90;99182.56;5345235;26;20048;-85
2024/01/09 08:54:40;;;;;;;19.80;8.48;;;;;;;-1.85;56.61;99182.94;5345892;26;20049;-85
2024/01/09 08:57:07;;;;;;;27.15;10.80;;;;;;;-1.70;55.31;99192.59;5345877;26;20060;-86
2024/01/09 08:59:34;;;;;;;;;;;;;;;-1.64;55.36;99192.72;5347090;26;20501;-86
2024/01/09 09:02:01;;;;;;;26.73;10.75;;;;;;;-1.79;55.22;99190.69;5347909;26;20457;-85
2024/01/09 09:04:28;;;;;;;24.23;9.82;;;;;;;-1.76;55.69;99200.00;5350503;26;20048;-84
2024/01/09 09:06:55;;;;;;;;;;;;;;;-1.78;55.50;99196.59;5350660;26;20057;-85
2024/01/09 09:09:22;;;;;;;24.77;7.90;;;;;;;-2.33;56.45;99213.72;5349989;26;19968;-87
2024/01/09 09:11:48;;;;;;;;;;;;;;;-1.80;54.89;99201.63;5347444;26;20464;-86
2024/01/09 09:14:15;;;;;;;17.48;6.10;;;;;;;-1.94;54.19;99215.56;5350359;26;20355;-86
2024/01/09 09:16:43;;;;;;;;;;;;;;;-2.47;55.35;99220.06;5350471;26;20070;-87
2024/01/09 09:19:10;;;;;;;;;;;;;;;-2.44;54.54;99216.78;5351672;26;19971;-88
2024/01/09 09:21:37;;;;;;;20.15;7.15;;;;;;;-2.09;53.27;99215.19;5348944;26;19959;-87
2024/01/09 09:24:04;;;;;;;26.20;7.97;;;;;;;-2.13;53.95;99211.72;5330890;26;20129;-87
2024/01/09 09:26:32;;;;;;;24.27;7.78;;;;;;;-1.54;52.95;99207.28;5350511;26;20041;-87
2024/01/09 09:29:00;;;;;;;15.05;6.43;;;;;;;-1.87;55.04;99214.94;5349963;26;20115;-89
2024/01/09 09:31:44;;;;;;;14.98;5.65;;;;;;;-1.95;53.57;99213.88;5350646;26;20028;-88
2024/01/09 09:34:11;;;;;;;16.33;5.50;;;;;;;-2.16;53.45;99204.06;5350692;26;20052;-88
2024/01/09 09:36:38;;;;;;;23.67;7.85;;;;;;;-2.25;54.08;99208.00;5350193;26;20057;-88
2024/01/09 09:39:05;;;;;;;20.55;8.98;;;;;;;-2.06;53.41;99211.06;5350934;26;20419;-88
2024/01/09 09:41:33;;;;;;;19.75;7.18;;;;;;;-2.25;54.95;99215.59;5349098;26;20062;-88
2024/01/09 09:44:03;;;;;;;27.87;9.13;;;;;;;-2.39;53.44;99208.50;5354009;26;20045;-88
2024/01/09 09:46:33;;;;;;;16.60;5.72;;;;;;;-2.30;54.09;99207.03;5351045;26;20068;-88
2024/01/09 09:49:00;;;;;;;15.02;6.05;;;;;;;-2.08;53.40;99201.72;5349257;26;20020;-88
2024/01/09 09:51:27;;;;;;;17.80;6.87;;;;;;;-2.18;52.83;99209.91;5351368;26;20063;-88
2024/01/09 09:53:55;;;;;;;14.07;5.72;;;;;;;-2.19;52.44;99213.25;5331495;26;20041;-88
2024/01/09 09:56:22;;;;;;;21.25;7.10;;;;;;;-2.46;52.24;99216.72;5330070;26;20348;-88
2024/01/09 09:58:49;;;;;;;19.48;7.28;;;;;;;-2.33;53.72;99213.72;5330319;26;20143;-88
2024/01/09 10:01:16;;;;;;;;;;;;;;;-1.89;53.11;99211.50;5331252;26;20112;-87
2024/01/09 10:04:19;;;;;;;17.33;4.93;;;;;;;-1.81;52.60;99215.09;5355504;26;19985;-86
2024/01/09 10:06:46;;;;;;;19.00;7.03;;;;;;;-1.99;51.10;99212.09;5338310;26;20110;-86
2024/01/09 10:09:14;;;;;;;14.43;5.47;;;;;;;-1.73;51.37;99217.78;5334518;26;20064;-87
2024/01/09 10:11:43;;;;;;;22.20;8.35;;;;;;;-1.80;51.01;99210.88;5345915;26;20115;-87
2024/01/09 10:14:10;;;;;;;18.08;6.05;;;;;;;-2.10;52.83;99156.19;5334261;26;20040;-87
2024/01/09 10:16:53;;;;;;;14.77;4.97;;;;;;;-2.19;51.75;99210.72;5351267;26;20060;-86
2024/01/09 10:19:24;;;;;;;15.40;5.25;;;;;;;-1.82;50.60;99203.22;5331619;26;20032;-84
2024/01/09 10:21:51;;;;;;;11.60;4.22;;;;;;;-1.83;49.15;99215.84;5308907;27;20052;-83
2024/01/09 10:24:37;;;;;;;20.92;6.57;;;;;;;-1.87;50.77;99176.13;5310606;27;20045;-85
2024/01/09 10:27:08;;;;;;;23.95;8.38;;;;;;;-2.03;51.13;99170.66;5286921;27;20084;-83
2024/01/09 10:29:38;;;;;;;14.15;5.10;;;;;;;-1.29;51.12;99218.00;5329056;27;20071;-84
2024/01/09 10:32:07;;;;;;;20.33;6.57;;;;;;;-1.38;50.72;99208.53;5339724;26;20048;-85
2024/01/09 10:34:33;;;;;;;14.38;5.40;;;;;;;-1.60;50.72;99221.47;5333430;26;20055;-84
2024/01/09 10:37:08;;;;;;;21.77;7.28;;;;;;;-1.62;51.81;99207.94;5350717;26;20060;-85
2024/01/09 10:39:35;;;;;;;13.18;4.93;;;;;;;-1.55;50.27;99212.31;5353195;26;20719;-85
2024/01/09 10:42:09;;;;;;;19.17;6.87;;;;;;;-1.70;50.84;99206.88;5354103;26;20807;-85
2024/01/09 10:44:39;;;;;;;16.95;6.07;;;;;;;-1.61;51.24;99209.63;5350939;26;20105;-86
2024/01/09 10:47:14;;;;;;;15.93;5.05;;;;;;;-1.92;50.70;99215.59;5329758;26;20781;-87
2024/01/09 10:49:42;;;;;;;18.62;7.00;;;;;;;-1.33;50.79;99217.06;5350222;26;20078;-86
2024/01/09 10:52:13;;;;;;;15.63;5.18;;;;;;;-1.00;50.51;99222.03;5349038;26;20052;-85
2024/01/09 10:54:41;;;;;;;15.93;5.53;;;;;;;-1.90;49.30;99168.47;5353050;26;20620;-85
2024/01/09 10:57:19;;;;;;;16.73;6.32;;;;;;;-1.62;51.48;99225.63;5355411;26;20025;-85
2024/01/09 10:59:46;;;;;;;19.17;6.15;;;;;;;-1.28;50.38;99229.81;5358051;26;20087;-85
2024/01/09 11:02:25;;;;;;;15.43;6.12;;;;;;;-1.50;50.81;99220.88;5356792;26;20437;-85
2024/01/09 11:04:52;;;;;;;17.80;5.72;;;;;;;-1.85;50.41;99212.44;5358634;26;20050;-85
2024/01/09 11:07:21;;;;;;;22.10;7.95;;;;;;;-1.54;49.96;99222.47;5354685;26;20064;-85
2024/01/09 11:09:48;;;;;;;17.60;6.78;;;;;;;-1.27;49.92;99224.81;5349049;26;20067;-85
2024/01/09 11:12:39;;;;;;;22.05;7.00;;;;;;;-1.57;50.90;99224.94;5293774;27;20065;-85
2024/01/09 11:15:25;;;;;;;19.05;7.35;;;;;;;-1.36;50.25;99227.12;5302218;27;20407;-84
2024/01/09 11:18:09;;;;;;;17.17;7.82;;;;;;;-1.08;50.02;99230.28;5304401;27;20068;-86
2024/01/09 11:20:36;;;;;;;21.45;6.90;;;;;;;-1.33;50.79;99231.41;5313055;27;20030;-85
2024/01/09 11:23:04;;;;;;;15.75;5.72;;;;;;;-1.26;50.82;99230.75;5333462;27;20083;-86
2024/01/09 11:25:36;;;;;;;12.77;5.10;;;;;;;-1.54;51.77;99231.75;5335900;26;20040;-85
2024/01/09 11:28:04;;;;;;;14.77;5.00;;;;;;;-1.39;50.78;99229.56;5334542;27;20036;-85
2024/01/09 11:30:31;;;;;;;14.15;4.60;;;;;;;-1.42;51.83;99231.19;5333453;26;20029;-85
2024/01/09 11:33:27;;;;;;;20.00;7.30;;;;;;;-1.50;50.63;99231.00;5330885;26;20087;-86
2024/01/09 11:36:05;;;;;;;14.40;6.25;;;;;;;-1.20;50.96;99235.94;5330167;26;20029;-85
2024/01/09 11:38:32;;;;;;;18.70;6.37;;;;;;;-1.12;49.63;99234.44;5334201;26;20028;-86
2024/01/09 11:41:07;;;;;;;16.23;5.97;;;;;;;-1.18;49.84;99239.34;5332799;27;20032;-86
2024/01/09 11:44:01;;;;;;;20.42;8.15;;;;;;;-1.55;50.54;99220.78;5333414;27;20021;-86
2024/01/09 11:46:39;;;;;;;21.08;6.15;;;;;;;-1.39;51.58;99228.72;5332195;26;20028;-86
2024/01/09 11:49:07;;;;;;;14.90;5.07;;;;;;;-1.20;49.60;99223.25;5330831;26;20074;-85
2024/01/09 11:51:35;;;;;;;18.17;7.82;;;;;;;-1.00;50.59;99222.03;5328291;27;20119;-86
2024/01/09 11:54:03;;;;;;;19.42;7.30;;;;;;;-1.03;50.23;99226.19;5332746;26;20057;-85
2024/01/09 11:56:31;;;;;;;17.23;6.78;;;;;;;-1.11;49.72;99223.47;5336342;26;20069;-85
2024/01/09 11:58:58;;;;;;;17.40;5.95;;;;;;;-1.46;48.62;99221.00;5331800;27;20040;-85
2024/01/09 12:01:26;;;;;;;20.15;7.05;;;;;;;-1.24;47.11;99222.34;5329356;26;20039;-85
2024/01/09 12:03:54;;;;;;;13.65;5.70;;;;;;;-0.67;49.08;99226.09;5333404;26;20049;-86
2024/01/09 12:06:23;;;;;;;13.70;4.35;;;;;;;-0.94;46.95;99229.78;5331727;26;20066;-84